createdAt,value
2018-03-30T00:02:01.109Z,3.70
2018-03-30T00:04:29.353Z,4.60
2018-03-30T00:06:57.604Z,5.35
2018-03-30T00:09:44.473Z,5.65
2018-03-30T00:12:12.722Z,5.50
2018-03-30T00:14:40.966Z,5.55
2018-03-30T00:17:09.214Z,6.12
2018-03-30T00:19:37.455Z,6.57
2018-03-30T00:22:05.701Z,8.07
2018-03-30T00:24:34.714Z,7.32
2018-03-30T00:27:02.961Z,8.02
2018-03-30T00:29:31.978Z,9.30
2018-03-30T00:32:00.225Z,9.25
2018-03-30T00:34:28.469Z,9.05
2018-03-30T00:36:56.728Z,9.45
2018-03-30T00:39:24.986Z,9.73
2018-03-30T00:41:53.230Z,7.82
2018-03-30T00:44:21.482Z,8.95
2018-03-30T00:46:49.730Z,8.50
2018-03-30T00:49:17.981Z,8.98
2018-03-30T00:51:46.233Z,8.90
2018-03-30T00:54:15.254Z,8.63
2018-03-30T00:56:43.501Z,8.52
2018-03-30T00:59:11.754Z,8.73
2018-03-30T01:01:40.002Z,8.80
2018-03-30T01:04:08.253Z,8.90
2018-03-30T01:06:36.493Z,8.52
2018-03-30T01:09:04.746Z,9.02
2018-03-30T01:11:32.989Z,8.95
2018-03-30T01:14:01.267Z,9.18
2018-03-30T01:16:29.508Z,9.80
2018-03-30T01:18:58.516Z,9.95
2018-03-30T01:21:27.529Z,9.35
2018-03-30T01:23:55.774Z,9.52
2018-03-30T01:26:24.797Z,9.93
2018-03-30T01:28:53.045Z,9.88
2018-03-30T01:31:22.070Z,10.90
2018-03-30T01:33:50.317Z,9.95
2018-03-30T01:36:19.343Z,10.40
2018-03-30T01:38:47.598Z,9.95
2018-03-30T01:41:15.850Z,10.57
2018-03-30T01:43:44.865Z,10.32
2018-03-30T01:46:13.121Z,11.12
2018-03-30T01:48:42.134Z,11.12
2018-03-30T01:51:10.419Z,11.75
2018-03-30T01:53:38.662Z,10.90
2018-03-30T01:56:07.690Z,11.48
2018-03-30T01:58:35.942Z,11.40
2018-03-30T02:01:04.942Z,11.35
2018-03-30T02:03:33.196Z,11.73
2018-03-30T02:06:02.213Z,11.70
2018-03-30T02:08:30.467Z,12.75
2018-03-30T02:10:59.478Z,11.18
2018-03-30T02:13:28.499Z,12.13
2018-03-30T02:15:56.795Z,10.55
2018-03-30T02:18:25.005Z,10.73
2018-03-30T02:20:54.017Z,12.45
2018-03-30T02:23:22.269Z,11.05
2018-03-30T02:25:51.288Z,14.65
2018-03-30T02:28:19.560Z,12.98
2018-03-30T02:30:48.711Z,13.05
2018-03-30T02:33:16.952Z,12.05
2018-03-30T02:35:45.209Z,13.00
2018-03-30T02:38:13.466Z,13.75
2018-03-30T02:40:41.722Z,14.00
2018-03-30T02:43:09.972Z,14.23
2018-03-30T02:45:38.223Z,15.15
2018-03-30T02:48:06.472Z,14.15
2018-03-30T02:50:35.493Z,13.07
2018-03-30T02:53:03.738Z,13.02
2018-03-30T02:55:32.762Z,12.85
2018-03-30T02:58:01.007Z,13.13
2018-03-30T03:00:30.025Z,14.40
2018-03-30T03:02:58.277Z,15.52
2018-03-30T03:05:27.301Z,13.88
2018-03-30T03:07:55.541Z,13.73
2018-03-30T03:10:24.565Z,17.50
2018-03-30T03:12:52.820Z,16.37
2018-03-30T03:15:21.829Z,17.37
2018-03-30T03:17:50.084Z,16.85
2018-03-30T03:20:19.093Z,15.20
2018-03-30T03:22:47.363Z,15.32
2018-03-30T03:25:16.374Z,15.55
2018-03-30T03:27:44.625Z,13.57
2018-03-30T03:30:13.652Z,15.00
2018-03-30T03:32:41.897Z,13.30
2018-03-30T03:35:10.913Z,13.95
2018-03-30T03:37:39.173Z,12.55
2018-03-30T03:40:07.426Z,11.00
2018-03-30T03:42:36.440Z,12.57
2018-03-30T03:45:04.691Z,12.20
2018-03-30T03:47:32.944Z,11.90
2018-03-30T03:50:01.295Z,11.07
2018-03-30T03:52:29.543Z,10.23
2018-03-30T03:54:58.549Z,11.65
2018-03-30T03:57:26.810Z,10.77
2018-03-30T03:59:55.821Z,10.20
2018-03-30T04:02:24.083Z,11.52
2018-03-30T04:04:52.338Z,10.88
2018-03-30T04:07:21.353Z,11.60
2018-03-30T04:09:49.613Z,10.85
2018-03-30T04:12:18.643Z,11.38
2018-03-30T04:14:46.885Z,11.75
2018-03-30T04:17:15.904Z,11.07
2018-03-30T04:19:44.162Z,11.50
2018-03-30T04:22:12.409Z,11.43
2018-03-30T04:24:40.669Z,11.57
2018-03-30T04:27:08.914Z,11.93
2018-03-30T04:29:37.175Z,14.05
2018-03-30T04:32:05.423Z,13.62
2018-03-30T04:34:34.435Z,13.48
2018-03-30T04:37:02.718Z,12.98
2018-03-30T04:39:30.978Z,13.95
2018-03-30T04:41:59.993Z,13.07
2018-03-30T04:44:28.234Z,13.60
2018-03-30T04:46:57.254Z,12.73
2018-03-30T04:49:25.497Z,14.43
2018-03-30T04:51:54.518Z,12.70
2018-03-30T04:54:22.769Z,13.57
2018-03-30T04:56:51.795Z,12.15
2018-03-30T04:59:20.033Z,13.02
2018-03-30T05:01:49.054Z,13.38
2018-03-30T05:04:17.302Z,14.45
2018-03-30T05:06:45.558Z,14.75
2018-03-30T05:09:13.809Z,14.68
2018-03-30T05:11:42.061Z,15.40
2018-03-30T05:14:10.312Z,14.87
2018-03-30T05:16:39.333Z,17.12
2018-03-30T05:19:07.585Z,17.30
2018-03-30T05:21:36.613Z,15.65
2018-03-30T05:24:04.869Z,17.27
2018-03-30T05:26:33.113Z,16.02
2018-03-30T05:29:01.366Z,16.48
2018-03-30T05:31:29.616Z,15.70
2018-03-30T05:33:57.875Z,16.52
2018-03-30T05:36:26.120Z,16.25
2018-03-30T05:38:55.145Z,17.42
2018-03-30T05:41:23.393Z,17.73
2018-03-30T05:43:52.413Z,19.65
2018-03-30T05:46:20.683Z,17.60
2018-03-30T05:48:49.690Z,16.95
2018-03-30T05:51:17.939Z,19.65
2018-03-30T05:53:46.957Z,18.95
2018-03-30T05:56:15.197Z,18.80
2018-03-30T05:58:44.218Z,18.67
2018-03-30T06:01:12.465Z,19.58
2018-03-30T06:03:40.718Z,17.02
2018-03-30T06:06:08.977Z,16.83
2018-03-30T06:08:37.227Z,15.43
2018-03-30T06:11:05.473Z,17.20
2018-03-30T06:13:34.485Z,18.30
2018-03-30T06:16:02.747Z,17.65
2018-03-30T06:18:31.757Z,14.90
2018-03-30T06:21:00.022Z,16.30
2018-03-30T06:23:29.033Z,16.40
2018-03-30T06:25:57.293Z,16.08
2018-03-30T06:28:25.536Z,14.52
2018-03-30T06:30:53.800Z,16.60
2018-03-30T06:33:22.045Z,14.32
2018-03-30T06:35:50.299Z,14.50
2018-03-30T06:38:18.579Z,13.45
2018-03-30T06:40:46.802Z,12.60
2018-03-30T06:43:15.049Z,12.73
2018-03-30T06:45:43.306Z,12.18
2018-03-30T06:48:11.552Z,13.02
2018-03-30T06:50:40.594Z,11.20
2018-03-30T06:53:08.840Z,13.50
2018-03-30T06:55:37.094Z,13.23
2018-03-30T06:58:06.220Z,12.40
2018-03-30T07:00:34.472Z,12.90
2018-03-30T07:03:03.498Z,12.25
2018-03-30T07:05:31.744Z,13.30
2018-03-30T07:08:00.766Z,12.30
2018-03-30T07:10:29.009Z,11.98
2018-03-30T07:12:58.033Z,11.40
2018-03-30T07:15:26.285Z,10.97
2018-03-30T07:17:55.307Z,11.40
2018-03-30T07:20:23.555Z,12.00
2018-03-30T07:22:52.566Z,11.97
2018-03-30T07:25:20.815Z,13.57
2018-03-30T07:27:49.828Z,11.80
2018-03-30T07:30:18.073Z,11.57
2018-03-30T07:32:46.324Z,12.10
2018-03-30T07:35:14.576Z,11.80
2018-03-30T07:37:42.825Z,12.10
2018-03-30T07:40:11.073Z,12.77
2018-03-30T07:42:39.325Z,12.47
2018-03-30T07:45:07.576Z,12.40
2018-03-30T07:47:35.845Z,12.90
2018-03-30T07:50:04.096Z,13.07
2018-03-30T07:52:33.089Z,14.27
2018-03-30T07:55:02.105Z,11.77
2018-03-30T07:57:30.350Z,12.07
2018-03-30T07:59:59.370Z,13.13
2018-03-30T08:02:27.617Z,12.63
2018-03-30T08:04:56.632Z,13.37
2018-03-30T08:07:24.879Z,13.73
2018-03-30T08:09:53.134Z,12.83
2018-03-30T08:12:21.384Z,14.30
2018-03-30T08:14:49.643Z,14.10
2018-03-30T08:17:17.888Z,13.90
2018-03-30T08:19:46.905Z,15.67
2018-03-30T08:22:15.153Z,14.20
2018-03-30T08:24:44.165Z,14.30
2018-03-30T08:27:12.414Z,13.13
2018-03-30T08:29:40.671Z,14.63
2018-03-30T08:32:08.948Z,14.70
2018-03-30T08:34:37.874Z,14.43
2018-03-30T08:37:06.884Z,14.87
2018-03-30T08:39:35.160Z,15.93
2018-03-30T08:42:03.401Z,15.70
2018-03-30T08:44:31.653Z,16.27
2018-03-30T08:46:59.943Z,14.73
2018-03-30T08:49:28.157Z,15.57
2018-03-30T08:51:56.409Z,15.67
2018-03-30T08:54:25.430Z,18.43
2018-03-30T08:56:53.677Z,16.47
2018-03-30T08:59:22.686Z,16.23
2018-03-30T09:01:50.945Z,17.93
2018-03-30T09:04:19.956Z,18.57
2018-03-30T09:06:48.975Z,18.97
2018-03-30T09:09:17.218Z,18.53
2018-03-30T09:11:46.242Z,18.70
2018-03-30T09:14:14.489Z,18.07
2018-03-30T09:16:43.510Z,18.73
2018-03-30T09:19:11.758Z,19.13
2018-03-30T09:21:40.775Z,16.50
2018-03-30T09:24:09.024Z,21.03
2018-03-30T09:26:38.042Z,16.97
2018-03-30T09:29:06.286Z,17.97
2018-03-30T09:31:35.335Z,18.20
2018-03-30T09:34:03.579Z,20.97
2018-03-30T09:36:31.821Z,19.47
2018-03-30T09:39:00.977Z,17.93
2018-03-30T09:41:29.244Z,20.90
2018-03-30T09:43:57.496Z,17.00
2018-03-30T09:46:25.756Z,16.77
2018-03-30T09:48:54.766Z,17.10
2018-03-30T09:51:23.012Z,17.40
2018-03-30T09:53:51.262Z,18.77
2018-03-30T09:56:19.510Z,17.77
2018-03-30T09:58:47.758Z,18.03
2018-03-30T10:01:16.768Z,17.90
2018-03-30T10:03:48.465Z,18.93
2018-03-30T10:06:16.718Z,18.67
2018-03-30T10:08:44.985Z,17.37
2018-03-30T10:11:13.234Z,18.73
2018-03-30T10:13:42.262Z,16.83
2018-03-30T10:16:10.513Z,16.77
2018-03-30T10:18:38.770Z,13.87
2018-03-30T10:21:07.798Z,13.27
2018-03-30T10:23:36.046Z,13.37
2018-03-30T10:26:05.060Z,14.20
2018-03-30T10:28:33.319Z,13.73
2018-03-30T10:31:01.596Z,13.73
2018-03-30T10:33:30.617Z,11.87
2018-03-30T10:35:58.906Z,10.87
2018-03-30T10:38:27.879Z,9.53
2018-03-30T10:40:56.125Z,11.23
2018-03-30T10:43:25.145Z,11.00
2018-03-30T10:45:53.397Z,10.00
2018-03-30T10:48:22.426Z,10.10
2018-03-30T10:50:50.673Z,11.87
2018-03-30T10:53:18.930Z,9.83
2018-03-30T10:55:47.945Z,9.17
2018-03-30T10:58:16.203Z,10.27
2018-03-30T11:00:45.243Z,10.87
2018-03-30T11:03:13.606Z,9.97
2018-03-30T11:05:41.865Z,9.23
2018-03-30T11:08:10.142Z,9.23
2018-03-30T11:10:38.396Z,8.17
2018-03-30T11:13:07.445Z,8.30
2018-03-30T11:15:35.705Z,8.10
2018-03-30T11:18:04.012Z,8.13
2018-03-30T11:20:32.245Z,7.07
2018-03-30T11:23:00.492Z,8.50
2018-03-30T11:25:28.750Z,8.50
2018-03-30T11:27:57.792Z,7.70
2018-03-30T11:30:26.050Z,6.70
2018-03-30T11:32:55.082Z,7.10
2018-03-30T11:35:23.322Z,6.20
2018-03-30T11:37:51.575Z,6.50
2018-03-30T11:40:20.602Z,6.13
2018-03-30T11:42:48.854Z,6.50
2018-03-30T11:45:17.867Z,5.63
2018-03-30T11:47:46.147Z,5.30
2018-03-30T11:50:14.393Z,4.90
2018-03-30T11:52:43.408Z,4.60
2018-03-30T11:55:11.659Z,5.63
2018-03-30T11:57:40.684Z,5.17
2018-03-30T12:00:08.930Z,5.10
2018-03-30T12:02:37.182Z,5.33
2018-03-30T12:05:05.421Z,5.80
2018-03-30T12:07:33.674Z,5.87
2018-03-30T12:10:01.924Z,4.70
2018-03-30T12:12:30.167Z,4.80
2018-03-30T12:14:58.420Z,5.33
2018-03-30T12:17:26.673Z,4.53
2018-03-30T12:19:54.921Z,5.23
2018-03-30T12:22:23.161Z,5.53
2018-03-30T12:24:51.414Z,4.90
2018-03-30T12:27:19.654Z,5.00
2018-03-30T12:29:48.671Z,5.63
2018-03-30T12:32:16.910Z,4.87
2018-03-30T12:34:45.162Z,4.90
2018-03-30T12:37:13.422Z,4.40
2018-03-30T12:39:41.670Z,4.63
2018-03-30T12:42:09.911Z,5.40
2018-03-30T12:44:38.165Z,4.53
2018-03-30T12:47:06.410Z,4.93
2018-03-30T12:49:34.653Z,5.07
2018-03-30T12:52:03.666Z,4.97
2018-03-30T12:54:31.922Z,4.47
2018-03-30T12:57:00.935Z,4.17
2018-03-30T12:59:29.182Z,4.30
2018-03-30T13:01:57.426Z,3.93
2018-03-30T13:04:25.678Z,4.63
2018-03-30T13:06:53.922Z,4.63
2018-03-30T13:09:22.977Z,4.10
2018-03-30T13:11:51.225Z,4.00
2018-03-30T13:14:19.519Z,4.53
2018-03-30T13:16:48.534Z,3.80
2018-03-30T13:19:18.289Z,3.50
2018-03-30T13:21:46.537Z,3.27
2018-03-30T13:24:15.550Z,3.53
2018-03-30T13:26:43.801Z,2.70
2018-03-30T13:29:12.046Z,2.77
2018-03-30T13:31:40.301Z,2.90
2018-03-30T13:34:08.544Z,2.73
2018-03-30T13:36:37.562Z,3.07
2018-03-30T13:39:05.809Z,2.50
2018-03-30T13:41:34.821Z,2.33
2018-03-30T13:44:03.065Z,2.17
2018-03-30T13:46:32.189Z,2.07
2018-03-30T13:49:00.429Z,1.90
2018-03-30T13:54:30.242Z,2.40
2018-03-30T13:57:03.522Z,2.23
2018-03-30T13:59:31.764Z,1.87
2018-03-30T14:05:17.031Z,2.17
2018-03-30T14:07:52.246Z,1.60
2018-03-30T14:10:35.381Z,2.00
2018-03-30T14:13:07.182Z,1.90
2018-03-30T14:15:39.224Z,1.87
2018-03-30T14:18:15.769Z,1.93
2018-03-30T14:20:44.018Z,1.93
2018-03-30T14:23:16.782Z,2.17
2018-03-30T14:25:55.338Z,1.73
2018-03-30T14:28:27.001Z,1.77
2018-03-30T14:34:07.721Z,1.50
2018-03-30T14:39:47.927Z,1.47
2018-03-30T14:42:16.892Z,1.40
2018-03-30T14:45:11.059Z,1.47
2018-03-30T14:47:52.706Z,1.47
2018-03-30T14:53:41.401Z,1.37
2018-03-30T14:56:11.469Z,1.80
2018-03-30T14:59:08.017Z,1.80
2018-03-30T15:04:59.974Z,1.50
2018-03-30T15:07:32.335Z,1.70
2018-03-30T15:10:08.810Z,1.80
2018-03-30T15:15:52.699Z,2.00
2018-03-30T15:18:25.089Z,1.90
2018-03-30T15:21:02.881Z,1.87
2018-03-30T15:23:33.426Z,1.50
2018-03-30T15:26:08.804Z,1.20
2018-03-30T15:28:38.418Z,1.50
2018-03-30T15:31:16.573Z,1.13
2018-03-30T15:34:04.074Z,1.23
2018-03-30T15:36:51.668Z,1.50
2018-03-30T15:39:19.933Z,1.13
2018-03-30T15:41:49.594Z,1.20
2018-03-30T15:44:17.835Z,1.27
2018-03-30T15:46:58.342Z,1.67
2018-03-30T15:49:28.230Z,1.30
2018-03-30T15:51:57.753Z,1.47
2018-03-30T15:54:25.201Z,1.30
2018-03-30T15:56:57.399Z,1.20
2018-03-30T15:59:25.644Z,1.17
2018-03-30T16:01:53.890Z,1.27
2018-03-30T16:04:22.130Z,1.20
2018-03-30T16:06:50.382Z,1.20
2018-03-30T16:09:19.429Z,1.10
2018-03-30T16:11:56.299Z,1.30
2018-03-30T16:14:24.537Z,1.10
2018-03-30T16:16:52.786Z,1.10
2018-03-30T16:19:20.246Z,1.33
2018-03-30T16:21:47.702Z,1.20
2018-03-30T16:24:15.148Z,0.97
2018-03-30T16:26:42.614Z,1.10
2018-03-30T16:29:10.082Z,1.20
2018-03-30T16:31:37.541Z,1.70
2018-03-30T16:34:04.994Z,1.60
2018-03-30T16:36:32.454Z,1.23
2018-03-30T16:38:59.904Z,0.97
2018-03-30T16:41:27.397Z,1.30
2018-03-30T16:43:55.626Z,1.30
2018-03-30T16:46:23.073Z,1.57
2018-03-30T16:48:50.620Z,1.13
2018-03-30T16:51:18.071Z,1.80
2018-03-30T16:53:45.529Z,1.10
2018-03-30T16:56:13.002Z,1.37
2018-03-30T16:58:40.485Z,1.30
2018-03-30T17:01:07.950Z,1.83
2018-03-30T17:03:35.423Z,1.87
2018-03-30T17:06:02.869Z,1.47
2018-03-30T17:08:30.332Z,1.50
2018-03-30T17:10:57.784Z,2.10
2018-03-30T17:13:25.246Z,2.47
2018-03-30T17:15:53.478Z,2.47
2018-03-30T17:18:20.933Z,1.33
2018-03-30T17:20:48.396Z,1.70
2018-03-30T17:23:15.863Z,1.83
2018-03-30T17:25:43.330Z,1.63
2018-03-30T17:28:10.790Z,1.73
2018-03-30T17:30:38.247Z,2.13
2018-03-30T17:33:05.713Z,2.73
2018-03-30T17:35:33.170Z,1.80
2018-03-30T17:38:00.637Z,2.20
2018-03-30T17:40:28.849Z,1.77
2018-03-30T17:42:56.315Z,2.00
2018-03-30T17:45:23.783Z,1.90
2018-03-30T17:47:51.234Z,2.13
2018-03-30T17:50:18.687Z,2.30
2018-03-30T17:52:46.138Z,2.50
2018-03-30T17:55:13.604Z,1.97
2018-03-30T17:57:41.062Z,2.47
2018-03-30T18:00:08.524Z,3.30
2018-03-30T18:02:35.981Z,2.90
2018-03-30T18:05:03.443Z,2.53
2018-03-30T18:07:30.897Z,2.43
2018-03-30T18:09:58.362Z,2.50
2018-03-30T18:12:25.813Z,2.30
2018-03-30T18:14:53.275Z,3.40
2018-03-30T18:17:20.734Z,2.73
2018-03-30T18:19:48.193Z,3.10
2018-03-30T18:22:15.654Z,3.10
2018-03-30T18:24:43.121Z,2.90
2018-03-30T18:27:10.578Z,3.20
2018-03-30T18:29:38.082Z,3.60
2018-03-30T18:32:05.543Z,4.67
2018-03-30T18:34:33.017Z,4.27
2018-03-30T18:37:00.469Z,3.93
2018-03-30T18:39:27.937Z,3.80
2018-03-30T18:41:55.389Z,3.33
2018-03-30T18:44:22.851Z,3.60
2018-03-30T18:46:50.301Z,3.83
2018-03-30T18:49:17.753Z,5.47
2018-03-30T18:51:45.217Z,4.43
2018-03-30T18:54:12.672Z,4.23
2018-03-30T18:56:40.138Z,5.63
2018-03-30T18:59:07.671Z,4.50
2018-03-30T19:01:35.133Z,5.20
2018-03-30T19:04:02.596Z,7.17
2018-03-30T19:06:36.383Z,5.20
2018-03-30T19:09:03.777Z,12.57
2018-03-30T19:11:31.247Z,7.47
2018-03-30T19:13:58.708Z,12.37
2018-03-30T19:16:26.184Z,18.10
2018-03-30T19:18:53.653Z,8.83
2018-03-30T19:21:21.882Z,12.83
2018-03-30T19:23:49.346Z,11.77
2018-03-30T19:26:16.839Z,6.73
2018-03-30T19:28:44.270Z,3.60
2018-03-30T19:31:11.733Z,3.33
2018-03-30T19:33:39.181Z,2.33
2018-03-30T19:36:06.641Z,3.17
2018-03-30T19:38:34.100Z,3.03
2018-03-30T19:41:01.559Z,3.13
2018-03-30T19:43:29.007Z,2.27
2018-03-30T19:45:56.461Z,3.07
2018-03-30T19:48:23.921Z,2.77
2018-03-30T19:50:51.445Z,2.80
2018-03-30T19:53:18.900Z,3.87
2018-03-30T19:55:46.352Z,3.00
2018-03-30T19:58:13.848Z,3.07
2018-03-30T20:00:41.329Z,2.90
2018-03-30T20:03:09.690Z,3.03
2018-03-30T20:05:37.141Z,3.23
2018-03-30T20:08:04.606Z,2.67
2018-03-30T20:10:32.057Z,2.30
2018-03-30T20:12:59.518Z,3.00
2018-03-30T20:15:26.972Z,2.93
2018-03-30T20:17:54.436Z,3.60
2018-03-30T20:20:21.881Z,3.03
2018-03-30T20:22:49.402Z,3.20
2018-03-30T20:25:16.851Z,2.10
2018-03-30T20:27:44.326Z,3.17
2018-03-30T20:30:11.801Z,2.83
2018-03-30T20:32:39.357Z,3.50
2018-03-30T20:35:06.826Z,3.47
2018-03-30T20:37:34.293Z,4.87
2018-03-30T20:40:02.536Z,7.20
2018-03-30T20:42:30.013Z,3.43
2018-03-30T20:44:57.478Z,4.20
2018-03-30T20:47:24.925Z,3.80
2018-03-30T20:49:52.389Z,2.97
2018-03-30T20:52:19.837Z,3.30
2018-03-30T20:54:47.310Z,2.77
2018-03-30T20:57:14.745Z,2.67
2018-03-30T20:59:42.199Z,3.17
2018-03-30T21:02:09.648Z,2.70
2018-03-30T21:04:37.105Z,3.03
2018-03-30T21:07:04.753Z,3.83
2018-03-30T21:09:32.205Z,4.20
2018-03-30T21:11:59.670Z,4.23
2018-03-30T21:14:27.125Z,4.70
2018-03-30T21:16:54.582Z,5.53
2018-03-30T21:19:22.029Z,4.43
2018-03-30T21:21:49.489Z,4.37
2018-03-30T21:24:16.942Z,4.60
2018-03-30T21:26:44.478Z,4.27
2018-03-30T21:29:12.694Z,4.10
2018-03-30T21:31:40.171Z,6.70
2018-03-30T21:34:07.639Z,6.03
2018-03-30T21:36:35.141Z,5.10
2018-03-30T21:39:02.654Z,5.43
2018-03-30T21:41:30.150Z,6.00
2018-03-30T21:43:58.361Z,6.33
2018-03-30T21:46:25.813Z,7.37
2018-03-30T21:48:53.261Z,7.40
2018-03-30T21:51:20.734Z,7.00
2018-03-30T21:53:48.185Z,7.53
2018-03-30T21:56:15.704Z,7.00
2018-03-30T21:58:43.993Z,6.67
2018-03-30T22:01:11.446Z,5.87
2018-03-30T22:03:39.669Z,6.83
2018-03-30T22:06:07.134Z,5.87
2018-03-30T22:08:34.589Z,6.37
2018-03-30T22:11:02.043Z,7.00
2018-03-30T22:13:29.506Z,6.77
2018-03-30T22:15:56.961Z,7.30
2018-03-30T22:18:24.417Z,7.57
2018-03-30T22:20:52.637Z,7.33
2018-03-30T22:23:20.107Z,6.90
2018-03-30T22:25:47.585Z,6.83
2018-03-30T22:28:15.106Z,7.10
2018-03-30T22:30:42.575Z,7.50
2018-03-30T22:33:10.090Z,7.77
2018-03-30T22:35:37.589Z,6.73
2018-03-30T22:38:05.043Z,8.60
2018-03-30T22:40:32.490Z,9.40
2018-03-30T22:43:00.714Z,9.00
2018-03-30T22:45:28.165Z,9.30
2018-03-30T22:47:55.614Z,9.73
2018-03-30T22:50:23.077Z,9.83
2018-03-30T22:52:50.524Z,9.40
2018-03-30T22:55:17.996Z,12.70
2018-03-30T22:57:45.458Z,12.63
2018-03-30T23:00:12.914Z,14.30
2018-03-30T23:02:40.378Z,11.90
2018-03-30T23:05:07.839Z,13.30
2018-03-30T23:07:35.305Z,14.03
2018-03-30T23:10:02.765Z,16.00
2018-03-30T23:12:30.213Z,13.37
2018-03-30T23:14:57.681Z,16.20
2018-03-30T23:17:25.147Z,15.20
2018-03-30T23:19:53.381Z,16.40
2018-03-30T23:22:20.843Z,17.77
2018-03-30T23:24:48.290Z,15.77
2018-03-30T23:27:15.756Z,14.00
2018-03-30T23:29:43.200Z,16.83
2018-03-30T23:32:10.666Z,16.27
2018-03-30T23:34:38.113Z,15.17
2018-03-30T23:37:05.581Z,16.90
2018-03-30T23:39:33.044Z,16.10
2018-03-30T23:42:00.498Z,16.30
2018-03-30T23:44:27.942Z,14.07
2018-03-30T23:46:55.400Z,15.30
2018-03-30T23:49:22.853Z,15.90
2018-03-30T23:51:50.325Z,15.50
2018-03-30T23:54:17.769Z,16.53
2018-03-30T23:56:45.238Z,15.17
2018-03-30T23:59:12.684Z,12.60
